sensor_id;sensor_type;location;lat;lon;timestamp;temperature;humidity
39219;DHT22;24934;52.752;6.964;2022-09-09T00:00:46;13.30;99.90
39219;DHT22;24934;52.752;6.964;2022-09-09T00:06:09;13.20;99.90
39219;DHT22;24934;52.752;6.964;2022-09-09T00:14:31;13.20;99.90
39219;DHT22;24934;52.752;6.964;2022-09-09T00:17:02;13.30;99.90
39219;DHT22;24934;52.752;6.964;2022-09-09T00:19:56;13.30;99.90
39219;DHT22;24934;52.752;6.964;2022-09-09T00:22:28;13.40;99.90
39219;DHT22;24934;52.752;6.964;2022-09-09T00:25:08;13.40;99.90
39219;DHT22;24934;52.752;6.964;2022-09-09T00:27:45;13.30;99.90
39219;DHT22;24934;52.752;6.964;2022-09-09T00:30:18;13.30;99.90
39219;DHT22;24934;52.752;6.964;2022-09-09T00:32:51;13.30;99.90
39219;DHT22;24934;52.752;6.964;2022-09-09T00:35:34;13.20;99.90
39219;DHT22;24934;52.752;6.964;2022-09-09T00:38:12;13.20;99.90
39219;DHT22;24934;52.752;6.964;2022-09-09T00:40:48;13.20;99.90
39219;DHT22;24934;52.752;6.964;2022-09-09T00:43:29;13.10;99.90
39219;DHT22;24934;52.752;6.964;2022-09-09T00:46:18;13.10;99.90
39219;DHT22;24934;52.752;6.964;2022-09-09T00:51:59;13.10;99.90
39219;DHT22;24934;52.752;6.964;2022-09-09T00:54:38;13.10;99.90
39219;DHT22;24934;52.752;6.964;2022-09-09T00:57:27;13.10;99.90
39219;DHT22;24934;52.752;6.964;2022-09-09T01:03:02;13.20;99.90
39219;DHT22;24934;52.752;6.964;2022-09-09T01:05:36;13.30;99.90
39219;DHT22;24934;52.752;6.964;2022-09-09T01:08:11;13.30;99.90
39219;DHT22;24934;52.752;6.964;2022-09-09T01:10:48;13.30;99.90
39219;DHT22;24934;52.752;6.964;2022-09-09T01:13:26;13.30;99.90
39219;DHT22;24934;52.752;6.964;2022-09-09T01:15:56;13.30;99.90
39219;DHT22;24934;52.752;6.964;2022-09-09T01:18:27;13.40;99.90
39219;DHT22;24934;52.752;6.964;2022-09-09T01:21:18;13.40;99.90
39219;DHT22;24934;52.752;6.964;2022-09-09T01:26:48;13.40;99.90
39219;DHT22;24934;52.752;6.964;2022-09-09T01:29:17;13.50;99.90
39219;DHT22;24934;52.752;6.964;2022-09-09T01:32:37;13.50;99.90
39219;DHT22;24934;52.752;6.964;2022-09-09T01:34:49;13.50;99.90
39219;DHT22;24934;52.752;6.964;2022-09-09T01:37:15;13.50;99.90
39219;DHT22;24934;52.752;6.964;2022-09-09T01:39:43;13.50;99.90
39219;DHT22;24934;52.752;6.964;2022-09-09T01:42:12;13.50;99.90
39219;DHT22;24934;52.752;6.964;2022-09-09T01:44:39;13.50;99.90
39219;DHT22;24934;52.752;6.964;2022-09-09T01:47:04;13.50;99.90
39219;DHT22;24934;52.752;6.964;2022-09-09T01:49:30;13.50;99.90
39219;DHT22;24934;52.752;6.964;2022-09-09T01:51:58;13.50;99.90
39219;DHT22;24934;52.752;6.964;2022-09-09T01:54:26;13.50;99.90
39219;DHT22;24934;52.752;6.964;2022-09-09T02:02:34;13.50;99.90
39219;DHT22;24934;52.752;6.964;2022-09-09T02:08:07;13.40;99.90
39219;DHT22;24934;52.752;6.964;2022-09-09T02:10:50;13.40;99.90
39219;DHT22;24934;52.752;6.964;2022-09-09T02:13:19;13.30;99.90
39219;DHT22;24934;52.752;6.964;2022-09-09T02:16:07;13.30;99.90
39219;DHT22;24934;52.752;6.964;2022-09-09T02:19:01;13.20;99.90
39219;DHT22;24934;52.752;6.964;2022-09-09T02:21:30;13.20;99.90
39219;DHT22;24934;52.752;6.964;2022-09-09T02:23:59;13.20;99.90
39219;DHT22;24934;52.752;6.964;2022-09-09T02:26:30;13.20;99.90
39219;DHT22;24934;52.752;6.964;2022-09-09T02:29:00;13.20;99.90
39219;DHT22;24934;52.752;6.964;2022-09-09T02:31:27;13.20;99.90
39219;DHT22;24934;52.752;6.964;2022-09-09T02:33:59;13.20;99.90
39219;DHT22;24934;52.752;6.964;2022-09-09T02:36:29;13.20;99.90
39219;DHT22;24934;52.752;6.964;2022-09-09T02:38:56;13.20;99.90
39219;DHT22;24934;52.752;6.964;2022-09-09T02:41:34;13.20;99.90
39219;DHT22;24934;52.752;6.964;2022-09-09T02:44:01;13.20;99.90
39219;DHT22;24934;52.752;6.964;2022-09-09T02:49:18;13.30;99.90
39219;DHT22;24934;52.752;6.964;2022-09-09T02:52:01;13.30;99.90
39219;DHT22;24934;52.752;6.964;2022-09-09T02:54:28;13.30;99.90
39219;DHT22;24934;52.752;6.964;2022-09-09T02:59:27;13.40;99.90
39219;DHT22;24934;52.752;6.964;2022-09-09T03:01:54;13.50;99.90
39219;DHT22;24934;52.752;6.964;2022-09-09T03:04:20;13.50;99.90
39219;DHT22;24934;52.752;6.964;2022-09-09T03:06:45;13.50;99.90
39219;DHT22;24934;52.752;6.964;2022-09-09T03:09:11;13.50;99.90
39219;DHT22;24934;52.752;6.964;2022-09-09T03:11:37;13.40;99.90
39219;DHT22;24934;52.752;6.964;2022-09-09T03:14:04;13.50;99.90
39219;DHT22;24934;52.752;6.964;2022-09-09T03:16:30;13.50;99.90
39219;DHT22;24934;52.752;6.964;2022-09-09T03:18:55;13.50;99.90
39219;DHT22;24934;52.752;6.964;2022-09-09T03:21:21;13.50;99.90
39219;DHT22;24934;52.752;6.964;2022-09-09T03:23:47;13.50;99.90
39219;DHT22;24934;52.752;6.964;2022-09-09T03:26:12;13.50;99.90
39219;DHT22;24934;52.752;6.964;2022-09-09T03:28:40;13.50;99.90
39219;DHT22;24934;52.752;6.964;2022-09-09T03:31:06;13.50;99.90
39219;DHT22;24934;52.752;6.964;2022-09-09T03:33:36;13.50;99.90
39219;DHT22;24934;52.752;6.964;2022-09-09T03:36:03;13.50;99.90
39219;DHT22;24934;52.752;6.964;2022-09-09T03:38:28;13.40;99.90
39219;DHT22;24934;52.752;6.964;2022-09-09T03:40:55;13.50;99.90
39219;DHT22;24934;52.752;6.964;2022-09-09T03:43:23;13.40;99.90
39219;DHT22;24934;52.752;6.964;2022-09-09T03:45:49;13.40;99.90
39219;DHT22;24934;52.752;6.964;2022-09-09T03:48:16;13.40;99.90
39219;DHT22;24934;52.752;6.964;2022-09-09T03:50:50;13.40;99.90
39219;DHT22;24934;52.752;6.964;2022-09-09T03:53:17;13.50;99.90
39219;DHT22;24934;52.752;6.964;2022-09-09T03:55:49;13.50;99.90
39219;DHT22;24934;52.752;6.964;2022-09-09T03:58:16;13.50;99.90
39219;DHT22;24934;52.752;6.964;2022-09-09T04:00:52;13.50;99.90
39219;DHT22;24934;52.752;6.964;2022-09-09T04:03:18;13.50;99.90
39219;DHT22;24934;52.752;6.964;2022-09-09T04:05:43;13.50;99.90
39219;DHT22;24934;52.752;6.964;2022-09-09T04:08:09;13.50;99.90
39219;DHT22;24934;52.752;6.964;2022-09-09T04:10:35;13.50;99.90
39219;DHT22;24934;52.752;6.964;2022-09-09T04:13:04;13.50;99.90
39219;DHT22;24934;52.752;6.964;2022-09-09T04:15:30;13.50;99.90
39219;DHT22;24934;52.752;6.964;2022-09-09T04:17:56;13.50;99.90
39219;DHT22;24934;52.752;6.964;2022-09-09T04:20:22;13.50;99.90
39219;DHT22;24934;52.752;6.964;2022-09-09T04:22:47;13.50;99.90
39219;DHT22;24934;52.752;6.964;2022-09-09T04:25:13;13.50;99.90
39219;DHT22;24934;52.752;6.964;2022-09-09T04:27:39;13.50;99.90
39219;DHT22;24934;52.752;6.964;2022-09-09T04:30:05;13.40;99.90
39219;DHT22;24934;52.752;6.964;2022-09-09T04:32:33;13.40;99.90
39219;DHT22;24934;52.752;6.964;2022-09-09T04:34:58;13.40;99.90
39219;DHT22;24934;52.752;6.964;2022-09-09T04:37:24;13.40;99.90
39219;DHT22;24934;52.752;6.964;2022-09-09T04:39:50;13.40;99.90
39219;DHT22;24934;52.752;6.964;2022-09-09T04:42:16;13.40;99.90
39219;DHT22;24934;52.752;6.964;2022-09-09T04:44:43;13.40;99.90
39219;DHT22;24934;52.752;6.964;2022-09-09T04:47:09;13.30;99.90
39219;DHT22;24934;52.752;6.964;2022-09-09T04:49:35;13.40;99.90
39219;DHT22;24934;52.752;6.964;2022-09-09T04:52:02;13.30;99.90
39219;DHT22;24934;52.752;6.964;2022-09-09T04:54:28;13.30;99.90
39219;DHT22;24934;52.752;6.964;2022-09-09T04:56:54;13.30;99.90
39219;DHT22;24934;52.752;6.964;2022-09-09T04:59:20;13.30;99.90
39219;DHT22;24934;52.752;6.964;2022-09-09T05:01:47;13.30;99.90
39219;DHT22;24934;52.752;6.964;2022-09-09T05:04:12;13.30;99.90
39219;DHT22;24934;52.752;6.964;2022-09-09T05:06:39;13.30;99.90
39219;DHT22;24934;52.752;6.964;2022-09-09T05:09:05;13.20;99.90
39219;DHT22;24934;52.752;6.964;2022-09-09T05:11:32;13.20;99.90
39219;DHT22;24934;52.752;6.964;2022-09-09T05:13:57;13.20;99.90
39219;DHT22;24934;52.752;6.964;2022-09-09T05:16:23;13.20;99.90
39219;DHT22;24934;52.752;6.964;2022-09-09T05:18:49;13.20;99.90
39219;DHT22;24934;52.752;6.964;2022-09-09T05:21:17;13.20;99.90
39219;DHT22;24934;52.752;6.964;2022-09-09T05:23:45;13.20;99.90
39219;DHT22;24934;52.752;6.964;2022-09-09T05:26:16;13.20;99.90
39219;DHT22;24934;52.752;6.964;2022-09-09T05:28:42;13.20;99.90
39219;DHT22;24934;52.752;6.964;2022-09-09T05:31:09;13.10;99.90
39219;DHT22;24934;52.752;6.964;2022-09-09T05:33:37;13.10;99.90
39219;DHT22;24934;52.752;6.964;2022-09-09T05:36:07;13.10;99.90
39219;DHT22;24934;52.752;6.964;2022-09-09T05:38:34;13.10;99.90
39219;DHT22;24934;52.752;6.964;2022-09-09T05:41:01;13.10;99.90
39219;DHT22;24934;52.752;6.964;2022-09-09T05:43:28;13.00;99.90
39219;DHT22;24934;52.752;6.964;2022-09-09T05:46:06;13.00;99.90
39219;DHT22;24934;52.752;6.964;2022-09-09T05:48:38;13.00;99.90
39219;DHT22;24934;52.752;6.964;2022-09-09T05:51:06;13.00;99.90
39219;DHT22;24934;52.752;6.964;2022-09-09T05:53:33;13.10;99.90
39219;DHT22;24934;52.752;6.964;2022-09-09T05:56:07;13.20;99.90
39219;DHT22;24934;52.752;6.964;2022-09-09T05:58:36;13.40;99.90
39219;DHT22;24934;52.752;6.964;2022-09-09T06:01:06;13.60;99.90
39219;DHT22;24934;52.752;6.964;2022-09-09T06:03:34;13.60;99.90
39219;DHT22;24934;52.752;6.964;2022-09-09T06:06:02;13.80;99.90
39219;DHT22;24934;52.752;6.964;2022-09-09T06:08:31;13.70;99.90
39219;DHT22;24934;52.752;6.964;2022-09-09T06:11:04;13.80;99.90
39219;DHT22;24934;52.752;6.964;2022-09-09T06:13:31;13.90;99.90
39219;DHT22;24934;52.752;6.964;2022-09-09T06:15:58;13.80;99.90
39219;DHT22;24934;52.752;6.964;2022-09-09T06:18:24;13.70;99.90
39219;DHT22;24934;52.752;6.964;2022-09-09T06:21:02;13.70;99.90
39219;DHT22;24934;52.752;6.964;2022-09-09T06:23:29;13.70;99.90
39219;DHT22;24934;52.752;6.964;2022-09-09T06:26:37;13.90;99.90
39219;DHT22;24934;52.752;6.964;2022-09-09T06:29:04;13.90;99.90
39219;DHT22;24934;52.752;6.964;2022-09-09T06:31:32;13.90;99.90
39219;DHT22;24934;52.752;6.964;2022-09-09T06:34:00;14.00;99.90
39219;DHT22;24934;52.752;6.964;2022-09-09T06:36:31;14.00;99.90
39219;DHT22;24934;52.752;6.964;2022-09-09T06:38:57;14.00;99.90
39219;DHT22;24934;52.752;6.964;2022-09-09T06:41:25;14.00;99.90
39219;DHT22;24934;52.752;6.964;2022-09-09T06:43:52;14.00;99.90
39219;DHT22;24934;52.752;6.964;2022-09-09T06:46:20;14.00;99.90
39219;DHT22;24934;52.752;6.964;2022-09-09T06:48:47;14.00;99.90
39219;DHT22;24934;52.752;6.964;2022-09-09T06:51:16;14.10;99.90
39219;DHT22;24934;52.752;6.964;2022-09-09T06:53:43;14.20;99.90
39219;DHT22;24934;52.752;6.964;2022-09-09T06:58:35;14.20;99.90
39219;DHT22;24934;52.752;6.964;2022-09-09T07:01:03;14.30;99.90
39219;DHT22;24934;52.752;6.964;2022-09-09T07:03:28;14.30;99.90
39219;DHT22;24934;52.752;6.964;2022-09-09T07:05:55;14.40;99.90
39219;DHT22;24934;52.752;6.964;2022-09-09T07:08:22;14.40;99.90
39219;DHT22;24934;52.752;6.964;2022-09-09T07:10:47;14.40;99.90
39219;DHT22;24934;52.752;6.964;2022-09-09T07:13:13;14.60;99.90
39219;DHT22;24934;52.752;6.964;2022-09-09T07:15:41;14.70;99.90
39219;DHT22;24934;52.752;6.964;2022-09-09T07:18:10;14.90;99.90
39219;DHT22;24934;52.752;6.964;2022-09-09T07:20:35;14.80;99.90
39219;DHT22;24934;52.752;6.964;2022-09-09T07:23:01;14.80;99.90
39219;DHT22;24934;52.752;6.964;2022-09-09T07:25:27;14.80;99.90
39219;DHT22;24934;52.752;6.964;2022-09-09T07:27:54;14.90;99.90
39219;DHT22;24934;52.752;6.964;2022-09-09T07:30:20;15.00;99.90
39219;DHT22;24934;52.752;6.964;2022-09-09T07:32:45;15.20;99.90
39219;DHT22;24934;52.752;6.964;2022-09-09T07:35:11;15.50;99.90
39219;DHT22;24934;52.752;6.964;2022-09-09T07:37:37;15.60;99.90
39219;DHT22;24934;52.752;6.964;2022-09-09T07:40:03;15.80;99.90
39219;DHT22;24934;52.752;6.964;2022-09-09T07:42:30;15.90;99.90
39219;DHT22;24934;52.752;6.964;2022-09-09T07:44:55;16.10;99.90
39219;DHT22;24934;52.752;6.964;2022-09-09T07:47:21;16.20;99.90
39219;DHT22;24934;52.752;6.964;2022-09-09T07:49:47;16.30;99.90
39219;DHT22;24934;52.752;6.964;2022-09-09T07:52:15;16.50;99.90
39219;DHT22;24934;52.752;6.964;2022-09-09T07:54:41;16.50;99.90
39219;DHT22;24934;52.752;6.964;2022-09-09T07:57:07;16.60;99.90
39219;DHT22;24934;52.752;6.964;2022-09-09T07:59:33;16.70;99.90
39219;DHT22;24934;52.752;6.964;2022-09-09T08:01:58;16.60;99.90
39219;DHT22;24934;52.752;6.964;2022-09-09T08:04:25;16.80;99.90
39219;DHT22;24934;52.752;6.964;2022-09-09T08:06:57;17.00;99.90
39219;DHT22;24934;52.752;6.964;2022-09-09T08:09:23;17.10;99.90
39219;DHT22;24934;52.752;6.964;2022-09-09T08:11:52;17.00;99.90
39219;DHT22;24934;52.752;6.964;2022-09-09T08:14:17;17.10;99.90
39219;DHT22;24934;52.752;6.964;2022-09-09T08:16:46;17.10;99.90
39219;DHT22;24934;52.752;6.964;2022-09-09T08:19:12;17.30;99.90
39219;DHT22;24934;52.752;6.964;2022-09-09T08:21:41;17.40;99.90
39219;DHT22;24934;52.752;6.964;2022-09-09T08:24:08;17.40;99.90
39219;DHT22;24934;52.752;6.964;2022-09-09T08:26:37;17.20;99.90
39219;DHT22;24934;52.752;6.964;2022-09-09T08:29:05;17.20;99.90
39219;DHT22;24934;52.752;6.964;2022-09-09T08:31:40;17.60;99.90
39219;DHT22;24934;52.752;6.964;2022-09-09T08:34:06;17.70;99.90
39219;DHT22;24934;52.752;6.964;2022-09-09T08:36:43;17.80;99.90
39219;DHT22;24934;52.752;6.964;2022-09-09T08:39:12;18.00;99.90
39219;DHT22;24934;52.752;6.964;2022-09-09T08:50:27;18.20;99.90
39219;DHT22;24934;52.752;6.964;2022-09-09T09:09:52;17.90;99.90
39219;DHT22;24934;52.752;6.964;2022-09-09T09:12:23;17.90;99.90
39219;DHT22;24934;52.752;6.964;2022-09-09T09:14:50;17.90;99.90
39219;DHT22;24934;52.752;6.964;2022-09-09T09:17:21;17.80;99.90
39219;DHT22;24934;52.752;6.964;2022-09-09T09:19:49;17.70;99.90
39219;DHT22;24934;52.752;6.964;2022-09-09T09:22:52;17.80;99.90
39219;DHT22;24934;52.752;6.964;2022-09-09T09:25:22;17.70;99.90
39219;DHT22;24934;52.752;6.964;2022-09-09T09:27:58;18.10;99.90
39219;DHT22;24934;52.752;6.964;2022-09-09T09:30:49;18.30;99.90
39219;DHT22;24934;52.752;6.964;2022-09-09T09:33:21;18.60;99.90
39219;DHT22;24934;52.752;6.964;2022-09-09T09:35:51;18.50;99.90
39219;DHT22;24934;52.752;6.964;2022-09-09T09:38:21;18.70;99.90
39219;DHT22;24934;52.752;6.964;2022-09-09T09:40:56;18.80;99.90
39219;DHT22;24934;52.752;6.964;2022-09-09T09:43:31;18.50;99.90
39219;DHT22;24934;52.752;6.964;2022-09-09T09:45:58;18.60;99.90
39219;DHT22;24934;52.752;6.964;2022-09-09T09:48:25;18.70;99.90
39219;DHT22;24934;52.752;6.964;2022-09-09T09:53:32;19.20;99.90
39219;DHT22;24934;52.752;6.964;2022-09-09T09:56:10;19.80;99.90
39219;DHT22;24934;52.752;6.964;2022-09-09T10:01:26;19.80;99.90
39219;DHT22;24934;52.752;6.964;2022-09-09T10:04:01;19.60;99.90
39219;DHT22;24934;52.752;6.964;2022-09-09T10:06:36;19.40;99.90
39219;DHT22;24934;52.752;6.964;2022-09-09T10:09:17;19.20;99.90
39219;DHT22;24934;52.752;6.964;2022-09-09T10:11:45;19.50;99.90
39219;DHT22;24934;52.752;6.964;2022-09-09T10:14:21;19.60;99.90
39219;DHT22;24934;52.752;6.964;2022-09-09T10:19:45;19.70;99.90
39219;DHT22;24934;52.752;6.964;2022-09-09T10:22:27;20.30;99.90
39219;DHT22;24934;52.752;6.964;2022-09-09T10:33:37;20.20;99.90
39219;DHT22;24934;52.752;6.964;2022-09-09T10:36:30;20.50;99.90
39219;DHT22;24934;52.752;6.964;2022-09-09T10:39:06;20.20;99.90
39219;DHT22;24934;52.752;6.964;2022-09-09T10:47:07;20.10;99.90
39219;DHT22;24934;52.752;6.964;2022-09-09T11:00:13;20.70;99.90
39219;DHT22;24934;52.752;6.964;2022-09-09T11:02:40;20.00;99.90
39219;DHT22;24934;52.752;6.964;2022-09-09T11:05:17;20.00;99.90
39219;DHT22;24934;52.752;6.964;2022-09-09T11:08:11;19.90;99.90
39219;DHT22;24934;52.752;6.964;2022-09-09T11:10:44;20.00;99.90
39219;DHT22;24934;52.752;6.964;2022-09-09T11:13:18;20.30;99.90
39219;DHT22;24934;52.752;6.964;2022-09-09T11:15:49;20.50;99.90
39219;DHT22;24934;52.752;6.964;2022-09-09T11:18:21;20.90;99.90
39219;DHT22;24934;52.752;6.964;2022-09-09T11:20:51;21.30;99.90
39219;DHT22;24934;52.752;6.964;2022-09-09T11:23:40;21.70;99.90
39219;DHT22;24934;52.752;6.964;2022-09-09T11:26:10;21.60;99.90
39219;DHT22;24934;52.752;6.964;2022-09-09T11:37:17;21.30;99.90
39219;DHT22;24934;52.752;6.964;2022-09-09T11:42:30;21.40;99.90
39219;DHT22;24934;52.752;6.964;2022-09-09T11:44:56;21.30;99.90
39219;DHT22;24934;52.752;6.964;2022-09-09T11:47:29;21.40;99.90
39219;DHT22;24934;52.752;6.964;2022-09-09T11:50:27;21.30;99.90
39219;DHT22;24934;52.752;6.964;2022-09-09T11:55:32;21.60;99.90
39219;DHT22;24934;52.752;6.964;2022-09-09T11:58:03;21.70;99.90
39219;DHT22;24934;52.752;6.964;2022-09-09T12:03:01;21.50;99.90
39219;DHT22;24934;52.752;6.964;2022-09-09T12:05:40;21.60;99.90
39219;DHT22;24934;52.752;6.964;2022-09-09T12:08:10;21.40;99.90
39219;DHT22;24934;52.752;6.964;2022-09-09T12:10:39;21.30;99.90
39219;DHT22;24934;52.752;6.964;2022-09-09T12:13:21;21.50;99.90
39219;DHT22;24934;52.752;6.964;2022-09-09T12:15:56;22.00;99.90
39219;DHT22;24934;52.752;6.964;2022-09-09T12:18:31;22.60;99.90
39219;DHT22;24934;52.752;6.964;2022-09-09T12:21:05;23.30;99.90
39219;DHT22;24934;52.752;6.964;2022-09-09T12:23:43;23.80;99.90
39219;DHT22;24934;52.752;6.964;2022-09-09T12:31:59;23.20;99.90
39219;DHT22;24934;52.752;6.964;2022-09-09T12:40:19;22.10;99.90
39219;DHT22;24934;52.752;6.964;2022-09-09T12:42:45;21.70;99.90
39219;DHT22;24934;52.752;6.964;2022-09-09T12:45:40;21.20;99.90
39219;DHT22;24934;52.752;6.964;2022-09-09T12:48:08;20.80;99.90
39219;DHT22;24934;52.752;6.964;2022-09-09T12:50:42;20.20;99.90
39219;DHT22;24934;52.752;6.964;2022-09-09T12:53:12;19.60;99.90
39219;DHT22;24934;52.752;6.964;2022-09-09T12:55:50;19.30;99.90
39219;DHT22;24934;52.752;6.964;2022-09-09T12:58:17;19.60;99.90
39219;DHT22;24934;52.752;6.964;2022-09-09T13:00:54;20.00;99.90
39219;DHT22;24934;52.752;6.964;2022-09-09T13:03:23;20.60;99.90
39219;DHT22;24934;52.752;6.964;2022-09-09T13:05:50;21.00;99.90
39219;DHT22;24934;52.752;6.964;2022-09-09T13:08:17;20.90;99.90
39219;DHT22;24934;52.752;6.964;2022-09-09T13:13:41;20.40;99.90
39219;DHT22;24934;52.752;6.964;2022-09-09T13:16:26;20.30;99.90
39219;DHT22;24934;52.752;6.964;2022-09-09T13:18:55;20.10;99.90
39219;DHT22;24934;52.752;6.964;2022-09-09T13:21:32;19.90;99.90
39219;DHT22;24934;52.752;6.964;2022-09-09T13:23:57;19.70;99.90
39219;DHT22;24934;52.752;6.964;2022-09-09T13:26:28;19.60;99.90
39219;DHT22;24934;52.752;6.964;2022-09-09T13:29:07;19.50;99.90
39219;DHT22;24934;52.752;6.964;2022-09-09T13:31:36;19.50;99.90
39219;DHT22;24934;52.752;6.964;2022-09-09T13:34:34;19.90;99.90
39219;DHT22;24934;52.752;6.964;2022-09-09T13:37:21;20.30;99.90
39219;DHT22;24934;52.752;6.964;2022-09-09T13:39:52;20.70;99.90
39219;DHT22;24934;52.752;6.964;2022-09-09T13:42:29;20.90;99.90
39219;DHT22;24934;52.752;6.964;2022-09-09T13:44:57;21.00;99.90
39219;DHT22;24934;52.752;6.964;2022-09-09T13:47:37;20.80;99.90
39219;DHT22;24934;52.752;6.964;2022-09-09T13:50:25;20.80;99.90
39219;DHT22;24934;52.752;6.964;2022-09-09T13:52:56;20.70;99.90
39219;DHT22;24934;52.752;6.964;2022-09-09T13:55:25;20.40;99.90
39219;DHT22;24934;52.752;6.964;2022-09-09T13:58:03;20.20;99.90
39219;DHT22;24934;52.752;6.964;2022-09-09T14:00:32;20.30;99.90
39219;DHT22;24934;52.752;6.964;2022-09-09T14:02:58;20.40;99.90
39219;DHT22;24934;52.752;6.964;2022-09-09T14:05:27;20.50;99.90
39219;DHT22;24934;52.752;6.964;2022-09-09T14:07:52;20.60;99.90
39219;DHT22;24934;52.752;6.964;2022-09-09T14:10:18;20.50;99.90
39219;DHT22;24934;52.752;6.964;2022-09-09T14:12:44;20.40;99.90
39219;DHT22;24934;52.752;6.964;2022-09-09T14:15:11;20.20;99.90
39219;DHT22;24934;52.752;6.964;2022-09-09T14:17:37;19.80;99.90
39219;DHT22;24934;52.752;6.964;2022-09-09T14:20:09;19.40;99.90
39219;DHT22;24934;52.752;6.964;2022-09-09T14:22:37;19.30;99.90
39219;DHT22;24934;52.752;6.964;2022-09-09T14:25:04;19.10;99.90
39219;DHT22;24934;52.752;6.964;2022-09-09T14:27:30;18.90;99.90
39219;DHT22;24934;52.752;6.964;2022-09-09T14:29:56;18.70;99.90
39219;DHT22;24934;52.752;6.964;2022-09-09T14:32:23;18.50;99.90
39219;DHT22;24934;52.752;6.964;2022-09-09T14:34:48;18.50;99.90
39219;DHT22;24934;52.752;6.964;2022-09-09T14:37:15;18.60;99.90
39219;DHT22;24934;52.752;6.964;2022-09-09T14:39:42;18.70;99.90
39219;DHT22;24934;52.752;6.964;2022-09-09T14:42:13;18.80;99.90
39219;DHT22;24934;52.752;6.964;2022-09-09T14:44:38;19.00;99.90
39219;DHT22;24934;52.752;6.964;2022-09-09T14:47:09;19.10;99.90
39219;DHT22;24934;52.752;6.964;2022-09-09T14:49:35;19.10;99.90
39219;DHT22;24934;52.752;6.964;2022-09-09T14:52:01;19.20;99.90
39219;DHT22;24934;52.752;6.964;2022-09-09T14:54:27;19.50;99.90
39219;DHT22;24934;52.752;6.964;2022-09-09T14:56:53;19.60;99.90
39219;DHT22;24934;52.752;6.964;2022-09-09T14:59:19;19.50;99.90
39219;DHT22;24934;52.752;6.964;2022-09-09T15:01:45;19.30;99.90
39219;DHT22;24934;52.752;6.964;2022-09-09T15:04:12;19.20;99.90
39219;DHT22;24934;52.752;6.964;2022-09-09T15:06:37;19.20;99.90
39219;DHT22;24934;52.752;6.964;2022-09-09T15:09:04;19.40;99.90
39219;DHT22;24934;52.752;6.964;2022-09-09T15:11:33;19.40;99.90
39219;DHT22;24934;52.752;6.964;2022-09-09T15:14:06;19.50;99.90
39219;DHT22;24934;52.752;6.964;2022-09-09T15:16:32;19.60;99.90
39219;DHT22;24934;52.752;6.964;2022-09-09T15:18:59;19.60;99.90
39219;DHT22;24934;52.752;6.964;2022-09-09T15:21:28;19.80;99.90
39219;DHT22;24934;52.752;6.964;2022-09-09T15:23:55;19.70;99.90
39219;DHT22;24934;52.752;6.964;2022-09-09T15:26:21;19.60;99.90
39219;DHT22;24934;52.752;6.964;2022-09-09T15:28:48;19.70;99.90
39219;DHT22;24934;52.752;6.964;2022-09-09T15:31:24;19.80;99.90
39219;DHT22;24934;52.752;6.964;2022-09-09T15:33:57;19.60;99.90
39219;DHT22;24934;52.752;6.964;2022-09-09T15:36:31;19.50;99.90
39219;DHT22;24934;52.752;6.964;2022-09-09T15:38:58;19.50;99.90
39219;DHT22;24934;52.752;6.964;2022-09-09T15:41:26;19.20;99.90
39219;DHT22;24934;52.752;6.964;2022-09-09T15:43:53;19.20;99.90
39219;DHT22;24934;52.752;6.964;2022-09-09T15:46:31;19.20;99.90
39219;DHT22;24934;52.752;6.964;2022-09-09T15:49:09;19.20;99.90
39219;DHT22;24934;52.752;6.964;2022-09-09T15:51:36;19.20;99.90
39219;DHT22;24934;52.752;6.964;2022-09-09T15:54:03;19.20;99.90
39219;DHT22;24934;52.752;6.964;2022-09-09T15:56:29;19.00;99.90
39219;DHT22;24934;52.752;6.964;2022-09-09T15:58:59;18.90;99.90
39219;DHT22;24934;52.752;6.964;2022-09-09T16:01:27;18.90;99.90
39219;DHT22;24934;52.752;6.964;2022-09-09T16:03:53;18.80;99.90
39219;DHT22;24934;52.752;6.964;2022-09-09T16:06:21;18.80;99.90
39219;DHT22;24934;52.752;6.964;2022-09-09T16:08:49;18.70;99.90
39219;DHT22;24934;52.752;6.964;2022-09-09T16:11:27;18.60;99.90
39219;DHT22;24934;52.752;6.964;2022-09-09T16:13:54;18.60;99.90
39219;DHT22;24934;52.752;6.964;2022-09-09T16:16:22;18.50;99.90
39219;DHT22;24934;52.752;6.964;2022-09-09T16:18:51;18.50;99.90
39219;DHT22;24934;52.752;6.964;2022-09-09T16:21:32;18.50;99.90
39219;DHT22;24934;52.752;6.964;2022-09-09T16:24:00;18.60;99.90
39219;DHT22;24934;52.752;6.964;2022-09-09T16:26:27;18.60;99.90
39219;DHT22;24934;52.752;6.964;2022-09-09T16:28:53;18.50;99.90
39219;DHT22;24934;52.752;6.964;2022-09-09T16:31:22;18.60;99.90
39219;DHT22;24934;52.752;6.964;2022-09-09T16:33:49;18.60;99.90
39219;DHT22;24934;52.752;6.964;2022-09-09T16:36:27;18.60;99.90
39219;DHT22;24934;52.752;6.964;2022-09-09T16:38:54;18.60;99.90
39219;DHT22;24934;52.752;6.964;2022-09-09T16:41:23;18.60;99.90
39219;DHT22;24934;52.752;6.964;2022-09-09T16:43:58;18.60;99.90
39219;DHT22;24934;52.752;6.964;2022-09-09T16:46:26;18.60;99.90
39219;DHT22;24934;52.752;6.964;2022-09-09T16:48:53;18.60;99.90
39219;DHT22;24934;52.752;6.964;2022-09-09T16:51:25;18.50;99.90
39219;DHT22;24934;52.752;6.964;2022-09-09T16:53:53;18.50;99.90
39219;DHT22;24934;52.752;6.964;2022-09-09T16:56:21;18.50;99.90
39219;DHT22;24934;52.752;6.964;2022-09-09T16:58:51;18.50;99.90
39219;DHT22;24934;52.752;6.964;2022-09-09T17:01:17;18.50;99.90
39219;DHT22;24934;52.752;6.964;2022-09-09T17:03:43;18.50;99.90
39219;DHT22;24934;52.752;6.964;2022-09-09T17:06:14;18.50;99.90
39219;DHT22;24934;52.752;6.964;2022-09-09T17:08:41;18.40;99.90
39219;DHT22;24934;52.752;6.964;2022-09-09T17:11:18;18.40;99.90
39219;DHT22;24934;52.752;6.964;2022-09-09T17:13:45;18.40;99.90
39219;DHT22;24934;52.752;6.964;2022-09-09T17:16:13;18.30;99.90
39219;DHT22;24934;52.752;6.964;2022-09-09T17:18:39;18.20;99.90
39219;DHT22;24934;52.752;6.964;2022-09-09T17:21:11;18.20;99.90
39219;DHT22;24934;52.752;6.964;2022-09-09T17:23:37;18.20;99.90
39219;DHT22;24934;52.752;6.964;2022-09-09T17:26:04;18.10;99.90
39219;DHT22;24934;52.752;6.964;2022-09-09T17:28:30;18.10;99.90
39219;DHT22;24934;52.752;6.964;2022-09-09T17:31:00;18.10;99.90
39219;DHT22;24934;52.752;6.964;2022-09-09T17:33:30;18.00;99.90
39219;DHT22;24934;52.752;6.964;2022-09-09T17:35:57;17.90;99.90
39219;DHT22;24934;52.752;6.964;2022-09-09T17:38:24;17.90;99.90
39219;DHT22;24934;52.752;6.964;2022-09-09T17:40:59;17.90;99.90
39219;DHT22;24934;52.752;6.964;2022-09-09T17:43:25;17.80;99.90
39219;DHT22;24934;52.752;6.964;2022-09-09T17:45:51;17.80;99.90
39219;DHT22;24934;52.752;6.964;2022-09-09T17:48:16;17.70;99.90
39219;DHT22;24934;52.752;6.964;2022-09-09T17:50:42;17.70;99.90
39219;DHT22;24934;52.752;6.964;2022-09-09T17:53:07;17.60;99.90